createdAt,value
2019-04-24T00:00:48.815Z,18.21
2019-04-24T00:01:42.719Z,18.14
2019-04-24T00:02:49.614Z,18.20
2019-04-24T00:04:02.795Z,18.14
2019-04-24T00:04:53.970Z,18.25
2019-04-24T00:07:58.040Z,18.20
2019-04-24T00:08:46.728Z,18.21
2019-04-24T00:09:44.942Z,18.18
2019-04-24T00:11:44.575Z,18.11
2019-04-24T00:14:57.031Z,18.05
2019-04-24T00:16:55.272Z,18.05
2019-04-24T00:17:54.990Z,17.99
2019-04-24T00:19:01.297Z,17.93
2019-04-24T00:19:45.441Z,17.93
2019-04-24T00:20:47.217Z,17.93
2019-04-24T00:21:51.787Z,17.99
2019-04-24T00:22:52.053Z,17.99
2019-04-24T00:24:07.536Z,17.93
2019-04-24T00:24:45.672Z,17.90
2019-04-24T00:25:43.305Z,17.89
2019-04-24T00:26:43.478Z,17.93
2019-04-24T00:28:03.891Z,17.90
2019-04-24T00:28:55.266Z,17.89
2019-04-24T00:30:57.551Z,17.84
2019-04-24T00:31:49.332Z,17.86
2019-04-24T00:32:50.674Z,17.84
2019-04-24T00:33:54.112Z,17.82
2019-04-24T00:35:57.940Z,17.79
2019-04-24T00:36:54.658Z,17.79
2019-04-24T00:37:49.605Z,17.81
2019-04-24T00:39:05.051Z,17.79
2019-04-24T00:40:58.386Z,17.86
2019-04-24T00:42:46.490Z,17.81
2019-04-24T00:44:39.064Z,17.78
2019-04-24T00:46:08.561Z,17.71
2019-04-24T00:46:51.588Z,17.75
2019-04-24T00:47:54.059Z,17.77
2019-04-24T00:48:50.963Z,17.74
2019-04-24T00:49:43.416Z,17.70
2019-04-24T00:51:00.636Z,17.68
2019-04-24T00:53:03.210Z,17.68
2019-04-24T00:53:54.214Z,17.59
2019-04-24T00:54:41.823Z,17.62
2019-04-24T00:55:53.297Z,17.68
2019-04-24T00:57:00.484Z,17.64
2019-04-24T00:58:59.484Z,17.63
2019-04-24T01:01:54.008Z,17.68
2019-04-24T01:02:43.849Z,17.68
2019-04-24T01:04:11.699Z,17.58
2019-04-24T01:05:07.382Z,17.70
2019-04-24T01:06:51.610Z,17.63
2019-04-24T01:08:39.375Z,17.58
2019-04-24T01:09:50.856Z,17.55
2019-04-24T01:10:39.916Z,17.66
2019-04-24T01:11:39.440Z,17.64
2019-04-24T01:12:54.875Z,17.66
2019-04-24T01:13:47.353Z,17.64
2019-04-24T01:14:45.263Z,17.54
2019-04-24T01:15:55.497Z,17.52
2019-04-24T01:16:59.693Z,17.56
2019-04-24T01:17:39.123Z,17.54
2019-04-24T01:18:40.973Z,17.54
2019-04-24T01:20:00.037Z,17.54
2019-04-24T01:20:53.521Z,17.51
2019-04-24T01:21:49.769Z,17.56
2019-04-24T01:24:46.889Z,17.46
2019-04-24T01:26:00.254Z,17.51
2019-04-24T01:26:43.849Z,17.46
2019-04-24T01:27:56.741Z,17.48
2019-04-24T01:28:48.054Z,17.43
2019-04-24T01:29:56.256Z,17.41
2019-04-24T01:31:46.597Z,17.30
2019-04-24T01:32:58.663Z,17.41
2019-04-24T01:33:41.884Z,17.37
2019-04-24T01:34:51.032Z,17.38
2019-04-24T01:35:48.567Z,17.40
2019-04-24T01:39:12.385Z,17.36
2019-04-24T01:40:52.315Z,17.26
2019-04-24T01:41:51.287Z,17.25
2019-04-24T01:42:59.888Z,17.37
2019-04-24T01:45:05.095Z,17.37
2019-04-24T01:45:50.784Z,17.34
2019-04-24T01:46:44.487Z,17.44
2019-04-24T01:47:57.666Z,17.38
2019-04-24T01:48:51.803Z,17.41
2019-04-24T01:50:58.399Z,17.40
2019-04-24T01:51:56.344Z,17.48
2019-04-24T01:52:50.229Z,17.43
2019-04-24T01:54:07.015Z,17.48
2019-04-24T01:54:51.382Z,17.43
2019-04-24T01:55:36.736Z,17.46
2019-04-24T01:56:49.701Z,17.40
2019-04-24T01:57:46.466Z,17.46
2019-04-24T01:58:47.825Z,17.41
2019-04-24T02:01:00.784Z,17.41
2019-04-24T02:01:00.789Z,17.40
2019-04-24T02:01:44.009Z,17.48
2019-04-24T02:03:41.982Z,17.38
2019-04-24T02:05:48.148Z,17.37
2019-04-24T02:06:37.382Z,17.48
2019-04-24T02:08:40.858Z,17.46
2019-04-24T02:10:02.265Z,17.52
2019-04-24T02:11:56.351Z,17.48
2019-04-24T02:13:11.560Z,17.56
2019-04-24T02:14:01.441Z,17.55
2019-04-24T02:14:50.972Z,17.55
2019-04-24T02:15:52.515Z,17.56
2019-04-24T02:16:47.465Z,17.63
2019-04-24T02:17:51.515Z,17.68
2019-04-24T02:18:43.617Z,17.56
2019-04-24T02:19:48.021Z,17.64
2019-04-24T02:22:50.218Z,17.72
2019-04-24T02:24:45.484Z,17.68
2019-04-24T02:26:35.707Z,17.79
2019-04-24T02:28:12.992Z,17.77
2019-04-24T02:29:06.599Z,17.79
2019-04-24T02:29:38.189Z,17.77
2019-04-24T02:31:48.566Z,17.87
2019-04-24T02:33:03.503Z,17.81
2019-04-24T02:34:03.403Z,17.79
2019-04-24T02:35:14.641Z,17.79
2019-04-24T02:36:04.547Z,17.82
2019-04-24T02:36:50.569Z,17.81
2019-04-24T02:37:54.329Z,17.81
2019-04-24T02:39:07.978Z,17.75
2019-04-24T02:40:48.939Z,17.78
2019-04-24T02:45:51.095Z,17.78
2019-04-24T02:46:51.830Z,17.74
2019-04-24T02:48:07.649Z,17.82
2019-04-24T02:49:06.033Z,17.78
2019-04-24T02:50:54.006Z,17.81
2019-04-24T02:51:52.582Z,17.79
2019-04-24T02:52:52.804Z,17.79
2019-04-24T02:53:47.574Z,17.79
2019-04-24T02:55:49.446Z,17.78
2019-04-24T02:57:46.987Z,17.77
2019-04-24T02:58:55.012Z,17.78
2019-04-24T02:59:51.684Z,17.78
2019-04-24T03:00:55.524Z,17.78
2019-04-24T03:02:09.681Z,17.75
2019-04-24T03:03:05.620Z,17.77
2019-04-24T03:05:57.961Z,17.79
2019-04-24T03:07:22.093Z,17.77
2019-04-24T03:10:49.413Z,17.71
2019-04-24T03:12:10.638Z,17.77
2019-04-24T03:14:02.061Z,17.77
2019-04-24T03:16:12.951Z,17.77
2019-04-24T03:19:49.475Z,17.77
2019-04-24T03:22:11.915Z,17.79
2019-04-24T03:22:54.496Z,17.81
2019-04-24T03:24:58.745Z,17.78
2019-04-24T03:29:05.027Z,17.81
2019-04-24T03:30:05.587Z,17.82
2019-04-24T03:38:18.885Z,17.77
2019-04-24T03:44:13.646Z,17.86
2019-04-24T03:46:55.035Z,17.89
2019-04-24T03:52:09.205Z,17.87
2019-04-24T03:52:55.420Z,17.84
2019-04-24T03:55:01.045Z,17.77
2019-04-24T03:58:11.040Z,17.92
2019-04-24T03:59:03.793Z,17.87
2019-04-24T04:00:17.159Z,17.81
2019-04-24T04:00:54.556Z,17.81
2019-04-24T04:02:05.860Z,17.79
2019-04-24T04:02:59.575Z,17.82
2019-04-24T04:03:58.016Z,17.78
2019-04-24T04:04:53.943Z,17.86
2019-04-24T04:05:34.654Z,17.78
2019-04-24T04:08:59.018Z,17.92
2019-04-24T04:09:52.654Z,17.79
2019-04-24T04:17:01.024Z,17.82
2019-04-24T04:18:17.415Z,17.86
2019-04-24T04:18:52.672Z,17.78
2019-04-24T04:23:28.145Z,17.82
2019-04-24T04:24:51.086Z,17.89
2019-04-24T04:25:57.681Z,17.82
2019-04-24T04:27:25.334Z,17.86
2019-04-24T04:27:53.025Z,17.92
2019-04-24T04:31:17.688Z,17.84
2019-04-24T04:31:42.213Z,17.82
2019-04-24T04:34:06.063Z,17.95
2019-04-24T04:34:52.291Z,17.87
2019-04-24T04:35:56.855Z,17.89
2019-04-24T04:36:56.367Z,17.87
2019-04-24T04:40:05.735Z,17.95
2019-04-24T04:46:02.950Z,17.92
2019-04-24T04:47:33.952Z,17.93
2019-04-24T04:49:11.124Z,17.92
2019-04-24T04:52:10.112Z,17.93
2019-04-24T04:53:46.898Z,17.90
2019-04-24T04:56:48.908Z,17.95
2019-04-24T04:58:01.771Z,17.93
2019-04-24T04:59:55.820Z,17.89
2019-04-24T05:03:01.071Z,17.92
2019-04-24T05:04:48.426Z,17.96
2019-04-24T05:06:10.933Z,17.96
2019-04-24T05:07:49.144Z,17.87
2019-04-24T05:09:26.782Z,17.87
2019-04-24T05:10:47.757Z,17.81
2019-04-24T05:14:06.867Z,17.86
2019-04-24T05:15:00.466Z,17.86
2019-04-24T05:15:54.591Z,17.92
2019-04-24T05:19:06.813Z,17.89
2019-04-24T05:22:02.144Z,17.90
2019-04-24T05:22:56.074Z,17.92
2019-04-24T05:24:01.913Z,17.95
2019-04-24T05:24:39.020Z,17.95
2019-04-24T05:26:06.406Z,17.90
2019-04-24T05:27:11.332Z,17.92
2019-04-24T05:27:38.620Z,17.93
2019-04-24T05:29:46.759Z,17.92
2019-04-24T05:30:41.739Z,17.89
2019-04-24T05:31:46.587Z,17.78
2019-04-24T05:33:48.376Z,17.78
2019-04-24T05:34:47.680Z,17.84
2019-04-24T05:36:44.434Z,17.89
2019-04-24T05:37:53.536Z,17.84
2019-04-24T05:39:52.591Z,17.84
2019-04-24T05:42:00.280Z,17.84
2019-04-24T05:42:55.715Z,17.87
2019-04-24T05:44:45.100Z,17.89
2019-04-24T05:50:48.645Z,17.93
2019-04-24T05:51:42.657Z,17.99
2019-04-24T05:53:45.927Z,17.95
2019-04-24T05:54:38.586Z,17.99
2019-04-24T05:58:44.203Z,18.03
2019-04-24T06:02:09.970Z,18.10
2019-04-24T06:02:44.788Z,18.21
2019-04-24T06:04:52.067Z,18.20
2019-04-24T06:06:10.488Z,18.23
2019-04-24T06:08:03.959Z,18.45
2019-04-24T06:08:50.704Z,18.33
2019-04-24T06:10:47.781Z,18.41
2019-04-24T06:12:53.663Z,18.32
2019-04-24T06:14:43.227Z,18.47
2019-04-24T06:16:49.185Z,18.50
2019-04-24T06:17:49.662Z,18.57
2019-04-24T06:18:55.880Z,18.51
2019-04-24T06:19:42.264Z,18.54
2019-04-24T06:21:48.197Z,18.54
2019-04-24T06:22:49.571Z,18.65
2019-04-24T06:27:55.860Z,18.78
2019-04-24T06:29:49.667Z,18.78
2019-04-24T06:30:54.412Z,18.87
2019-04-24T06:32:11.571Z,18.81
2019-04-24T06:33:57.323Z,18.69
2019-04-24T06:34:59.925Z,18.69
2019-04-24T06:35:57.979Z,18.72
2019-04-24T06:37:50.549Z,18.80
2019-04-24T06:38:58.276Z,18.70
2019-04-24T06:39:51.109Z,18.70
2019-04-24T06:42:53.015Z,18.66
2019-04-24T06:43:41.535Z,18.67
2019-04-24T06:45:40.978Z,18.72
2019-04-24T06:46:48.990Z,18.72
2019-04-24T06:48:45.218Z,18.78
2019-04-24T06:49:27.624Z,18.76
2019-04-24T06:51:47.986Z,18.73
2019-04-24T06:52:48.977Z,18.80
2019-04-24T06:53:43.802Z,18.63
2019-04-24T06:54:36.726Z,18.69
2019-04-24T06:55:48.995Z,18.73
2019-04-24T06:57:40.599Z,18.69
2019-04-24T06:58:34.770Z,18.63
2019-04-24T07:00:05.796Z,18.65
2019-04-24T07:02:40.303Z,18.69
2019-04-24T07:04:55.360Z,18.80
2019-04-24T07:05:41.865Z,18.81
2019-04-24T07:08:47.036Z,18.72
2019-04-24T07:09:38.864Z,18.72
2019-04-24T07:10:54.302Z,18.65
2019-04-24T07:12:44.925Z,18.67
2019-04-24T07:14:37.605Z,18.62
2019-04-24T07:17:12.297Z,18.60
2019-04-24T07:17:42.294Z,18.57
2019-04-24T07:18:34.541Z,18.65
2019-04-24T07:21:00.196Z,18.51
2019-04-24T07:21:43.354Z,18.67
2019-04-24T07:22:33.178Z,18.60
2019-04-24T07:24:46.058Z,18.63
2019-04-24T07:26:42.283Z,18.52
2019-04-24T07:28:01.407Z,18.57
2019-04-24T07:29:55.627Z,18.54
2019-04-24T07:30:45.504Z,18.54
2019-04-24T07:32:58.657Z,18.32
2019-04-24T07:33:53.200Z,18.32
2019-04-24T07:34:43.027Z,18.33
2019-04-24T07:37:54.057Z,18.37
2019-04-24T07:38:36.980Z,18.47
2019-04-24T07:39:47.292Z,18.55
2019-04-24T07:40:47.936Z,18.66
2019-04-24T07:42:35.631Z,18.94
2019-04-24T07:43:41.554Z,19.10
2019-04-24T07:44:37.068Z,19.19
2019-04-24T07:45:47.007Z,19.41
2019-04-24T07:47:36.114Z,19.59
2019-04-24T07:48:53.440Z,19.74
2019-04-24T07:49:55.052Z,19.78
2019-04-24T07:50:51.363Z,19.94
2019-04-24T07:51:54.820Z,19.86
2019-04-24T07:55:43.338Z,20.05
2019-04-24T07:55:50.599Z,20.14
2019-04-24T07:58:49.818Z,20.06
2019-04-24T07:59:59.538Z,19.99
2019-04-24T08:00:42.703Z,19.94
2019-04-24T08:01:57.576Z,19.69
2019-04-24T08:02:46.503Z,19.74
2019-04-24T08:04:01.989Z,19.69
2019-04-24T08:06:49.719Z,19.62
2019-04-24T08:08:53.656Z,19.78
2019-04-24T08:10:42.123Z,19.83
2019-04-24T08:11:45.005Z,19.76
2019-04-24T08:12:36.570Z,19.76
2019-04-24T08:13:35.759Z,19.81
2019-04-24T08:16:15.164Z,19.92
2019-04-24T08:18:25.220Z,19.95
2019-04-24T08:19:47.238Z,20.03
2019-04-24T08:21:18.215Z,20.35
2019-04-24T08:23:33.182Z,20.33
2019-04-24T08:24:40.722Z,20.39
2019-04-24T08:25:27.132Z,20.43
2019-04-24T08:26:18.364Z,20.51
2019-04-24T08:28:46.305Z,20.51
2019-04-24T08:29:31.923Z,20.61
2019-04-24T08:30:26.071Z,20.73
2019-04-24T08:33:42.110Z,20.84
2019-04-24T08:35:44.423Z,20.84
2019-04-24T08:36:25.196Z,20.94
2019-04-24T08:38:29.831Z,21.01
2019-04-24T08:41:35.041Z,20.98
2019-04-24T08:44:26.776Z,21.10
2019-04-24T08:45:17.766Z,21.01
2019-04-24T08:46:25.797Z,21.04
2019-04-24T08:47:42.808Z,20.94
2019-04-24T08:52:27.298Z,21.06
2019-04-24T08:53:24.834Z,21.27
2019-04-24T08:55:11.959Z,21.44
2019-04-24T08:56:07.342Z,21.53
2019-04-24T08:57:11.929Z,21.50
2019-04-24T08:59:08.117Z,21.79
2019-04-24T09:05:01.006Z,22.14
2019-04-24T09:06:49.145Z,22.00
2019-04-24T09:08:53.649Z,21.91
2019-04-24T09:11:01.952Z,22.17
2019-04-24T09:11:53.374Z,22.31
2019-04-24T09:13:01.975Z,22.67
2019-04-24T09:15:55.947Z,24.47
2019-04-24T09:17:50.302Z,24.47
2019-04-24T09:19:49.536Z,24.96
2019-04-24T09:20:55.857Z,25.50
2019-04-24T09:24:49.825Z,27.00
2019-04-24T09:26:21.173Z,27.28
2019-04-24T09:30:26.987Z,27.82
2019-04-24T09:30:50.933Z,27.66
2019-04-24T09:31:56.195Z,27.87
2019-04-24T09:33:47.262Z,27.49
2019-04-24T09:34:50.925Z,27.46
2019-04-24T09:38:04.530Z,27.00
2019-04-24T09:43:02.080Z,26.75
2019-04-24T09:43:43.382Z,26.51
2019-04-24T09:44:41.553Z,26.70
2019-04-24T09:45:45.963Z,26.91
2019-04-24T09:49:22.094Z,27.06
2019-04-24T09:50:38.903Z,26.60
2019-04-24T09:51:29.747Z,26.10
2019-04-24T09:53:13.003Z,25.65
2019-04-24T09:54:38.836Z,25.82
2019-04-24T09:55:36.298Z,25.92
2019-04-24T09:56:39.074Z,25.76
2019-04-24T09:57:43.308Z,25.39
2019-04-24T09:58:54.792Z,25.42
2019-04-24T09:59:34.145Z,25.36
2019-04-24T10:00:46.220Z,25.45
2019-04-24T10:03:35.031Z,25.39
2019-04-24T10:04:38.903Z,25.20
2019-04-24T10:06:59.414Z,25.09
2019-04-24T10:07:30.776Z,24.87
2019-04-24T10:09:35.319Z,25.18
2019-04-24T10:11:59.828Z,25.51
2019-04-24T10:14:10.321Z,25.50
2019-04-24T10:15:05.907Z,25.42
2019-04-24T10:16:03.343Z,25.25
2019-04-24T10:18:08.853Z,25.25
2019-04-24T10:19:22.665Z,25.30
2019-04-24T10:21:09.040Z,25.40
2019-04-24T10:22:04.755Z,25.39
2019-04-24T10:24:06.801Z,25.46
2019-04-24T10:26:06.674Z,25.58
2019-04-24T10:27:10.369Z,25.61
2019-04-24T10:28:19.690Z,25.67
2019-04-24T10:29:23.532Z,25.80
2019-04-24T10:30:06.121Z,25.73
2019-04-24T10:31:06.799Z,25.94
2019-04-24T10:34:05.810Z,26.21
2019-04-24T10:36:04.721Z,25.72
2019-04-24T10:37:08.833Z,25.87
2019-04-24T10:39:15.914Z,26.13
2019-04-24T10:41:09.284Z,26.50
2019-04-24T10:44:16.413Z,26.58
2019-04-24T10:45:12.076Z,26.76
2019-04-24T10:46:14.922Z,26.82
2019-04-24T10:47:31.336Z,26.81
2019-04-24T10:48:04.996Z,26.88
2019-04-24T10:49:15.648Z,27.02
2019-04-24T10:51:10.619Z,26.73
2019-04-24T10:52:05.272Z,26.67
2019-04-24T10:54:03.090Z,26.81
2019-04-24T10:55:15.962Z,26.45
2019-04-24T10:57:11.954Z,26.65
2019-04-24T10:58:05.404Z,26.52
2019-04-24T10:59:03.268Z,26.55
2019-04-24T11:00:06.168Z,26.69
2019-04-24T11:01:18.329Z,26.70
2019-04-24T11:03:20.957Z,26.39
2019-04-24T11:04:05.431Z,26.37
2019-04-24T11:06:04.317Z,26.28
2019-04-24T11:07:12.864Z,26.36
2019-04-24T11:10:32.108Z,26.63
2019-04-24T11:11:16.356Z,26.69
2019-04-24T11:12:12.553Z,26.54
2019-04-24T11:13:17.627Z,26.47
2019-04-24T11:14:27.097Z,26.21
2019-04-24T11:15:09.525Z,26.44
2019-04-24T11:16:18.790Z,26.55
2019-04-24T11:18:09.391Z,26.77
2019-04-24T11:19:27.144Z,26.91
2019-04-24T11:20:07.563Z,27.09
2019-04-24T11:21:36.405Z,27.10
2019-04-24T11:22:23.947Z,26.99
2019-04-24T11:23:13.702Z,27.00
2019-04-24T11:24:20.222Z,27.00
2019-04-24T11:25:21.115Z,26.85
2019-04-24T11:28:22.292Z,27.22
2019-04-24T11:30:09.887Z,26.92
2019-04-24T11:31:11.581Z,26.82
2019-04-24T11:32:24.780Z,26.88
2019-04-24T11:33:19.317Z,27.03
2019-04-24T11:34:34.144Z,27.10
2019-04-24T11:35:22.236Z,27.22
2019-04-24T11:37:51.938Z,27.46
2019-04-24T11:39:09.196Z,27.24
2019-04-24T11:40:18.792Z,26.80
2019-04-24T11:42:54.050Z,27.09
2019-04-24T11:43:58.321Z,27.43
2019-04-24T11:45:04.021Z,27.70
2019-04-24T11:47:21.641Z,27.65
2019-04-24T11:48:08.492Z,27.74
2019-04-24T11:49:04.795Z,27.87
2019-04-24T11:50:12.264Z,27.69
2019-04-24T11:52:02.014Z,27.00
2019-04-24T11:53:10.570Z,27.10
2019-04-24T11:53:48.961Z,27.34
2019-04-24T11:55:07.225Z,27.70
2019-04-24T11:56:03.867Z,27.85
2019-04-24T11:57:19.541Z,27.78
2019-04-24T11:59:32.111Z,27.79
2019-04-24T12:00:42.910Z,27.88
2019-04-24T12:01:55.768Z,27.92
2019-04-24T12:02:47.647Z,28.04
2019-04-24T12:03:56.397Z,28.06
2019-04-24T12:04:55.861Z,27.75
2019-04-24T12:11:25.596Z,28.68
2019-04-24T12:12:01.431Z,28.49
2019-04-24T12:13:11.727Z,28.41
2019-04-24T12:14:10.893Z,28.41
2019-04-24T12:15:09.767Z,28.18
2019-04-24T12:17:21.346Z,28.09
2019-04-24T12:18:06.077Z,28.22
2019-04-24T12:20:08.645Z,28.17
2019-04-24T12:22:03.992Z,28.24
2019-04-24T12:23:05.801Z,28.27
2019-04-24T12:24:07.349Z,28.41
2019-04-24T12:25:01.340Z,28.41
2019-04-24T12:26:09.890Z,28.41
2019-04-24T12:26:57.178Z,28.56
2019-04-24T12:28:10.700Z,28.78
2019-04-24T12:29:06.788Z,28.48
2019-04-24T12:30:00.918Z,28.34
2019-04-24T12:30:55.433Z,28.44
2019-04-24T12:32:06.533Z,28.58
2019-04-24T12:33:00.946Z,28.59
2019-04-24T12:34:11.704Z,28.62
2019-04-24T12:35:07.121Z,28.56
2019-04-24T12:36:05.382Z,28.41
2019-04-24T12:39:03.349Z,28.89
2019-04-24T12:40:07.569Z,28.96
2019-04-24T12:41:05.588Z,28.92
2019-04-24T12:42:04.181Z,28.93
2019-04-24T12:43:06.807Z,29.09
2019-04-24T12:44:12.383Z,29.14
2019-04-24T12:45:02.149Z,29.33
2019-04-24T12:46:09.536Z,29.16
2019-04-24T12:47:22.027Z,29.02
2019-04-24T12:48:00.108Z,29.04
2019-04-24T12:49:04.418Z,28.93
2019-04-24T12:50:06.775Z,28.89
2019-04-24T12:51:04.853Z,28.64
2019-04-24T12:52:04.847Z,28.43
2019-04-24T12:53:19.310Z,28.46
2019-04-24T12:54:17.570Z,28.49
2019-04-24T12:57:12.928Z,28.33
2019-04-24T12:58:16.194Z,28.46
2019-04-24T12:59:08.530Z,28.86
2019-04-24T12:59:55.510Z,29.02
2019-04-24T13:01:07.783Z,29.05
2019-04-24T13:02:09.745Z,29.02
2019-04-24T13:03:05.297Z,28.54
2019-04-24T13:04:19.241Z,27.92
2019-04-24T13:05:11.013Z,27.93
2019-04-24T13:07:08.289Z,28.07
2019-04-24T13:08:19.521Z,28.17
2019-04-24T13:09:19.331Z,27.96
2019-04-24T13:10:11.646Z,28.17
2019-04-24T13:11:06.290Z,28.55
2019-04-24T13:12:17.587Z,28.37
2019-04-24T13:13:03.030Z,28.39
2019-04-24T13:14:13.552Z,28.34
2019-04-24T13:15:14.457Z,28.18
2019-04-24T13:16:05.389Z,28.15
2019-04-24T13:18:13.083Z,28.51
2019-04-24T13:19:39.103Z,28.59
2019-04-24T13:20:43.173Z,28.62
2019-04-24T13:21:46.940Z,28.83
2019-04-24T13:22:48.377Z,28.93
2019-04-24T13:23:53.213Z,28.77
2019-04-24T13:24:57.507Z,28.71
2019-04-24T13:26:05.910Z,28.90
2019-04-24T13:27:14.136Z,28.98
2019-04-24T13:29:15.714Z,28.90
2019-04-24T13:30:10.358Z,28.88
2019-04-24T13:31:16.945Z,28.80
2019-04-24T13:32:11.900Z,28.71
2019-04-24T13:33:18.257Z,28.76
2019-04-24T13:34:16.562Z,28.88
2019-04-24T13:35:20.332Z,28.98
2019-04-24T13:36:18.153Z,28.93
2019-04-24T13:37:08.289Z,28.85
2019-04-24T13:39:03.963Z,28.89
2019-04-24T13:40:02.983Z,28.76
2019-04-24T13:41:00.047Z,28.73
2019-04-24T13:43:12.791Z,28.12
2019-04-24T13:44:13.001Z,28.07
2019-04-24T13:45:19.141Z,28.18
2019-04-24T13:46:05.161Z,28.30
2019-04-24T13:48:17.708Z,28.21
2019-04-24T13:49:19.432Z,28.19
2019-04-24T13:50:13.353Z,28.18
2019-04-24T13:51:03.661Z,28.15
2019-04-24T13:52:37.181Z,28.19
2019-04-24T13:54:14.743Z,28.22
2019-04-24T13:55:15.989Z,28.15
2019-04-24T13:56:20.270Z,28.17
2019-04-24T13:57:09.267Z,28.29
2019-04-24T13:58:20.544Z,28.41
2019-04-24T13:59:07.338Z,28.61
2019-04-24T14:00:25.331Z,28.64
2019-04-24T14:01:23.761Z,28.33
2019-04-24T14:05:09.205Z,28.39
2019-04-24T14:06:15.440Z,28.48
2019-04-24T14:09:15.860Z,28.49
2019-04-24T14:11:41.120Z,28.41
2019-04-24T14:12:12.906Z,28.58
2019-04-24T14:15:10.291Z,28.34
2019-04-24T14:16:22.172Z,28.27
2019-04-24T14:17:31.019Z,28.02
2019-04-24T14:18:15.516Z,28.03
2019-04-24T14:19:19.843Z,27.84
2019-04-24T14:20:17.182Z,27.85
2019-04-24T14:21:18.666Z,27.81
2019-04-24T14:24:14.418Z,27.84
2019-04-24T14:25:24.759Z,27.74
2019-04-24T14:26:13.603Z,27.79
2019-04-24T14:29:04.236Z,27.75
2019-04-24T14:31:10.657Z,27.67
2019-04-24T14:32:25.896Z,27.66
2019-04-24T14:33:16.526Z,27.74
2019-04-24T14:34:18.215Z,27.63
2019-04-24T14:36:18.663Z,27.65
2019-04-24T14:37:11.791Z,27.65
2019-04-24T14:39:18.404Z,27.75
2019-04-24T14:40:20.696Z,27.77
2019-04-24T14:41:06.298Z,27.77
2019-04-24T14:42:11.887Z,27.82
2019-04-24T14:43:23.431Z,27.77
2019-04-24T14:46:02.854Z,27.75
2019-04-24T14:46:57.790Z,27.34
2019-04-24T14:47:44.756Z,27.19
2019-04-24T14:48:51.533Z,27.14
2019-04-24T14:49:58.888Z,27.29
2019-04-24T14:51:01.040Z,27.24
2019-04-24T14:53:00.019Z,27.24
2019-04-24T14:53:57.200Z,27.18
2019-04-24T14:55:04.912Z,27.14
2019-04-24T14:55:55.237Z,26.97
2019-04-24T14:56:54.932Z,26.81
2019-04-24T14:59:07.966Z,26.50
2019-04-24T14:59:54.671Z,26.57
2019-04-24T15:00:56.153Z,26.67
2019-04-24T15:02:06.288Z,26.58
2019-04-24T15:03:58.098Z,26.54
2019-04-24T15:04:59.584Z,26.44
2019-04-24T15:06:00.856Z,26.60
2019-04-24T15:06:59.367Z,26.66
2019-04-24T15:08:02.448Z,26.72
2019-04-24T15:08:54.131Z,26.73
2019-04-24T15:09:52.713Z,26.80
2019-04-24T15:10:53.076Z,26.76
2019-04-24T15:13:10.911Z,26.76
2019-04-24T15:13:57.247Z,26.66
2019-04-24T15:15:01.806Z,26.67
2019-04-24T15:17:08.482Z,26.58
2019-04-24T15:17:57.299Z,26.75
2019-04-24T15:18:57.493Z,26.73
2019-04-24T15:20:01.539Z,26.77
2019-04-24T15:20:52.172Z,26.92
2019-04-24T15:21:56.770Z,27.04
2019-04-24T15:22:54.864Z,26.85
2019-04-24T15:24:14.203Z,26.88
2019-04-24T15:26:00.451Z,27.13
2019-04-24T15:26:55.316Z,27.13
2019-04-24T15:27:56.016Z,27.00
2019-04-24T15:28:58.023Z,26.97
2019-04-24T15:29:49.945Z,27.04
2019-04-24T15:30:50.643Z,27.18
2019-04-24T15:31:59.496Z,27.19
2019-04-24T15:32:48.958Z,27.19
2019-04-24T15:35:54.069Z,26.62
2019-04-24T15:36:54.979Z,26.67
2019-04-24T15:37:54.430Z,26.58
2019-04-24T15:40:14.976Z,26.48
2019-04-24T15:40:54.182Z,26.44
2019-04-24T15:41:55.932Z,26.48
2019-04-24T15:43:47.667Z,26.44
2019-04-24T15:44:58.467Z,26.39
2019-04-24T15:45:52.430Z,26.25
2019-04-24T15:46:58.879Z,26.23
2019-04-24T15:48:05.672Z,26.20
2019-04-24T15:48:59.833Z,26.25
2019-04-24T15:49:50.702Z,26.21
2019-04-24T15:50:53.250Z,26.20
2019-04-24T15:51:32.778Z,26.20
2019-04-24T15:52:19.651Z,26.09
2019-04-24T15:53:19.638Z,26.17
2019-04-24T15:54:19.634Z,26.18
2019-04-24T15:55:19.665Z,26.02
2019-04-24T15:56:19.960Z,25.95
2019-04-24T15:57:21.312Z,25.94
2019-04-24T15:58:28.040Z,26.01
2019-04-24T15:59:43.227Z,26.02
2019-04-24T16:00:58.631Z,26.01
2019-04-24T16:01:49.944Z,25.90
2019-04-24T16:02:59.916Z,25.88
2019-04-24T16:03:55.309Z,25.87
2019-04-24T16:04:52.505Z,25.82
2019-04-24T16:05:19.523Z,25.82
2019-04-24T16:06:19.507Z,25.75
2019-04-24T16:07:19.517Z,25.79
2019-04-24T16:08:19.505Z,25.72
2019-04-24T16:09:19.478Z,25.69
2019-04-24T16:10:19.470Z,25.69
2019-04-24T16:11:19.471Z,25.69
2019-04-24T16:12:19.445Z,25.62
2019-04-24T16:13:23.163Z,25.58
2019-04-24T16:14:42.385Z,25.54
2019-04-24T16:15:56.638Z,25.52
2019-04-24T16:17:56.737Z,25.39
2019-04-24T16:19:14.665Z,25.35
2019-04-24T16:19:50.447Z,25.38
2019-04-24T16:21:02.370Z,25.28
2019-04-24T16:21:45.208Z,25.24
2019-04-24T16:22:51.738Z,25.20
2019-04-24T16:24:20.599Z,25.14
2019-04-24T16:24:57.656Z,25.13
2019-04-24T16:25:49.910Z,25.17
2019-04-24T16:26:50.825Z,25.13
2019-04-24T16:28:54.234Z,25.14
2019-04-24T16:29:52.727Z,25.13
2019-04-24T16:30:47.114Z,25.05
2019-04-24T16:32:12.224Z,25.09
2019-04-24T16:32:48.719Z,25.15
2019-04-24T16:34:00.376Z,25.05
2019-04-24T16:34:51.047Z,25.06
2019-04-24T16:36:08.741Z,24.96
2019-04-24T16:36:53.160Z,24.96
2019-04-24T16:37:54.921Z,24.90
2019-04-24T16:39:06.241Z,24.90
2019-04-24T16:40:02.205Z,24.88
2019-04-24T16:42:03.275Z,24.96
2019-04-24T16:43:54.701Z,24.85
2019-04-24T16:44:48.806Z,24.78
2019-04-24T16:46:21.386Z,24.77
2019-04-24T16:48:22.189Z,24.64
2019-04-24T16:48:42.766Z,24.62
2019-04-24T16:50:02.390Z,24.53
2019-04-24T16:50:55.661Z,24.55
2019-04-24T16:51:56.865Z,24.45
2019-04-24T16:52:56.330Z,24.30
2019-04-24T16:54:43.095Z,24.25
2019-04-24T16:55:45.152Z,24.15
2019-04-24T16:59:48.185Z,23.94
2019-04-24T17:01:10.286Z,23.88
2019-04-24T17:02:52.166Z,23.63
2019-04-24T17:04:13.383Z,23.60
2019-04-24T17:06:47.205Z,23.47
2019-04-24T17:08:53.377Z,23.48
2019-04-24T17:10:54.123Z,23.36
2019-04-24T17:11:58.409Z,23.38
2019-04-24T17:12:45.758Z,23.33
2019-04-24T17:13:50.223Z,23.31
2019-04-24T17:14:53.933Z,23.16
2019-04-24T17:15:50.956Z,23.17
2019-04-24T17:17:55.227Z,21.69
2019-04-24T17:19:02.939Z,20.89
2019-04-24T17:21:12.055Z,19.41
2019-04-24T17:22:55.161Z,18.18
2019-04-24T17:23:54.996Z,17.79
2019-04-24T17:24:57.642Z,17.58
2019-04-24T17:25:58.339Z,17.19
2019-04-24T17:26:49.602Z,16.76
2019-04-24T17:27:53.488Z,16.31
2019-04-24T17:30:59.068Z,15.41
2019-04-24T17:31:50.880Z,15.17
2019-04-24T17:32:52.584Z,15.09
2019-04-24T17:33:51.891Z,14.94
2019-04-24T17:35:56.258Z,14.81
2019-04-24T17:36:26.347Z,14.81
2019-04-24T17:37:18.468Z,14.75
2019-04-24T17:38:18.452Z,14.69
2019-04-24T17:39:18.839Z,14.64
2019-04-24T17:40:18.999Z,14.75
2019-04-24T17:41:26.584Z,14.51
2019-04-24T17:42:34.282Z,14.51
2019-04-24T17:43:56.784Z,14.45
2019-04-24T17:44:51.674Z,14.47
2019-04-24T17:45:49.760Z,14.28
2019-04-24T17:46:52.782Z,14.22
2019-04-24T17:47:47.296Z,14.17
2019-04-24T17:48:46.963Z,14.07
2019-04-24T17:50:01.414Z,13.91
2019-04-24T17:50:47.272Z,13.85
2019-04-24T17:51:44.076Z,13.71
2019-04-24T17:53:45.216Z,13.69
2019-04-24T17:54:34.500Z,13.73
2019-04-24T17:55:45.897Z,13.70
2019-04-24T17:58:39.121Z,13.60
2019-04-24T17:59:18.102Z,13.64
2019-04-24T18:00:18.105Z,13.39
2019-04-24T18:01:18.067Z,13.28
2019-04-24T18:02:18.049Z,13.20
2019-04-24T18:03:18.027Z,13.15
2019-04-24T18:04:18.011Z,13.25
2019-04-24T18:05:18.112Z,13.14
2019-04-24T18:06:18.010Z,13.10
2019-04-24T18:07:17.983Z,13.11
2019-04-24T18:08:17.949Z,13.01
2019-04-24T18:09:17.923Z,13.04
2019-04-24T18:10:17.913Z,13.01
2019-04-24T18:11:17.894Z,13.07
2019-04-24T18:12:17.867Z,13.10
2019-04-24T18:13:17.871Z,13.11
2019-04-24T18:14:17.833Z,13.11
2019-04-24T18:15:17.823Z,13.07
2019-04-24T18:16:17.817Z,13.08
2019-04-24T18:17:17.819Z,13.07
2019-04-24T18:18:17.773Z,13.12
2019-04-24T18:19:17.752Z,13.15
2019-04-24T18:20:17.752Z,13.03
2019-04-24T18:21:17.727Z,13.08
2019-04-24T18:22:17.705Z,13.07
2019-04-24T18:23:17.699Z,13.01
2019-04-24T18:24:17.662Z,13.04
2019-04-24T18:25:17.694Z,13.07
2019-04-24T18:26:17.619Z,13.03